createdAt,value
2022-09-29T00:00:22.200Z,12.32
2022-09-29T00:02:48.712Z,11.30
2022-09-29T00:05:15.291Z,10.93
2022-09-29T00:07:41.839Z,11.02
2022-09-29T00:10:08.423Z,11.57
2022-09-29T00:12:34.911Z,12.32
2022-09-29T00:15:01.545Z,12.00
2022-09-29T00:17:27.972Z,11.68
2022-09-29T00:19:54.487Z,11.15
2022-09-29T00:22:20.991Z,12.48
2022-09-29T00:24:48.393Z,11.93
2022-09-29T00:27:16.318Z,11.60
2022-09-29T00:29:43.123Z,11.25
2022-09-29T00:32:09.844Z,11.73
2022-09-29T00:34:36.472Z,11.27
2022-09-29T00:37:03.347Z,10.88
2022-09-29T00:39:29.749Z,11.70
2022-09-29T00:41:57.762Z,11.65
2022-09-29T00:45:02.145Z,11.75
2022-09-29T00:47:30.571Z,11.55
2022-09-29T00:50:03.356Z,11.02
2022-09-29T00:52:37.500Z,10.50
2022-09-29T00:55:13.226Z,11.45
2022-09-29T00:57:51.061Z,12.30
2022-09-29T01:00:17.904Z,12.02
2022-09-29T01:02:49.833Z,11.70
2022-09-29T01:05:22.846Z,11.48
2022-09-29T01:07:50.642Z,11.70
2022-09-29T01:10:18.659Z,11.63
2022-09-29T01:12:47.185Z,11.48
2022-09-29T01:15:16.912Z,10.60
2022-09-29T01:17:44.512Z,11.63
2022-09-29T01:20:15.939Z,11.80
2022-09-29T01:23:34.754Z,11.70
2022-09-29T01:26:49.286Z,10.52
2022-09-29T01:29:50.022Z,11.63
2022-09-29T01:32:35.367Z,10.43
2022-09-29T01:35:23.007Z,11.02
2022-09-29T01:38:17.932Z,11.18
2022-09-29T01:40:54.805Z,9.40
2022-09-29T01:43:31.026Z,11.07
2022-09-29T01:46:11.680Z,11.65
2022-09-29T01:48:43.063Z,11.80
2022-09-29T01:51:16.373Z,11.48
2022-09-29T01:53:48.451Z,11.35
2022-09-29T01:56:23.538Z,11.93
2022-09-29T01:58:59.611Z,10.35
2022-09-29T02:01:32.801Z,11.35
2022-09-29T02:04:04.509Z,10.15
2022-09-29T02:06:37.646Z,10.18
2022-09-29T02:09:09.278Z,10.30
2022-09-29T02:11:40.483Z,10.20
2022-09-29T02:14:21.962Z,10.48
2022-09-29T02:16:58.690Z,9.88
2022-09-29T02:19:29.360Z,10.75
2022-09-29T02:21:55.883Z,10.65
2022-09-29T02:24:23.349Z,10.40
2022-09-29T02:26:51.387Z,9.27
2022-09-29T02:29:18.692Z,10.73
2022-09-29T02:31:46.658Z,10.73
2022-09-29T02:34:17.645Z,10.10
2022-09-29T02:36:59.519Z,10.98
2022-09-29T02:39:54.081Z,10.27
2022-09-29T02:42:39.402Z,10.48
2022-09-29T02:45:24.237Z,10.73
2022-09-29T02:48:06.861Z,10.23
2022-09-29T02:51:15.775Z,9.98
2022-09-29T02:54:06.982Z,9.70
2022-09-29T02:56:49.432Z,11.13
2022-09-29T02:59:24.874Z,10.57
2022-09-29T03:04:20.342Z,10.43
2022-09-29T03:06:46.937Z,11.30
2022-09-29T03:09:13.603Z,11.35
2022-09-29T03:11:40.007Z,12.38
2022-09-29T03:14:06.698Z,10.88
2022-09-29T03:16:34.834Z,10.52
2022-09-29T03:19:01.662Z,10.90
2022-09-29T03:21:28.071Z,12.98
2022-09-29T03:23:57.692Z,11.90
2022-09-29T03:26:24.991Z,11.52
2022-09-29T03:28:52.315Z,11.73
2022-09-29T03:31:19.443Z,12.23
2022-09-29T03:33:46.279Z,13.43
2022-09-29T03:36:12.971Z,12.50
2022-09-29T03:38:39.624Z,12.52
2022-09-29T03:41:07.094Z,13.50
2022-09-29T03:43:33.647Z,13.00
2022-09-29T03:46:00.196Z,14.70
2022-09-29T03:48:31.054Z,13.20
2022-09-29T03:50:57.648Z,13.75
2022-09-29T03:53:24.052Z,11.95
2022-09-29T03:55:51.276Z,13.18
2022-09-29T03:58:18.573Z,12.40
2022-09-29T04:00:45.250Z,12.48
2022-09-29T04:03:11.734Z,12.73
2022-09-29T04:05:40.000Z,12.45
2022-09-29T04:08:07.930Z,13.57
2022-09-29T04:10:35.918Z,13.40
2022-09-29T04:13:02.687Z,13.73
2022-09-29T04:15:29.495Z,14.35
2022-09-29T04:17:56.363Z,14.98
2022-09-29T04:20:22.782Z,13.73
2022-09-29T04:22:49.571Z,14.70
2022-09-29T04:25:16.300Z,14.93
2022-09-29T04:27:42.906Z,13.95
2022-09-29T04:30:10.033Z,15.57
2022-09-29T04:32:36.882Z,15.27
2022-09-29T04:35:03.701Z,15.07
2022-09-29T04:37:31.367Z,14.55
2022-09-29T04:39:57.856Z,14.88
2022-09-29T04:42:24.364Z,15.75
2022-09-29T04:44:50.772Z,15.02
2022-09-29T04:47:17.176Z,15.68
2022-09-29T04:49:43.690Z,16.45
2022-09-29T04:52:14.118Z,15.48
2022-09-29T04:54:40.680Z,15.70
2022-09-29T04:57:07.722Z,15.80
2022-09-29T04:59:34.177Z,14.77
2022-09-29T05:02:00.866Z,15.57
2022-09-29T05:04:27.431Z,15.43
2022-09-29T05:06:53.897Z,16.00
2022-09-29T05:09:24.157Z,16.40
2022-09-29T05:11:51.365Z,15.63
2022-09-29T05:14:17.824Z,15.55
2022-09-29T05:16:44.327Z,15.30
2022-09-29T05:19:10.878Z,15.30
2022-09-29T05:21:37.355Z,15.13
2022-09-29T05:24:03.789Z,15.38
2022-09-29T05:26:30.428Z,14.77
2022-09-29T05:28:56.856Z,16.20
2022-09-29T05:31:23.432Z,15.45
2022-09-29T05:33:50.042Z,16.85
2022-09-29T05:36:16.517Z,15.70
2022-09-29T05:38:42.971Z,15.93
2022-09-29T05:41:13.468Z,15.90
2022-09-29T05:43:40.554Z,16.83
2022-09-29T05:46:09.649Z,16.45
2022-09-29T05:48:36.769Z,16.77
2022-09-29T05:51:09.980Z,17.15
2022-09-29T05:53:36.821Z,15.85
2022-09-29T05:56:07.093Z,16.98
2022-09-29T05:58:33.993Z,16.42
2022-09-29T06:01:05.363Z,15.80
2022-09-29T06:03:34.247Z,16.63
2022-09-29T06:06:15.521Z,17.60
2022-09-29T06:08:42.929Z,16.63
2022-09-29T06:11:12.370Z,15.57
2022-09-29T06:13:41.822Z,16.05
2022-09-29T06:16:09.524Z,16.05
2022-09-29T06:18:36.379Z,15.32
2022-09-29T06:21:08.609Z,14.15
2022-09-29T06:23:35.512Z,15.55
2022-09-29T06:26:09.478Z,15.70
2022-09-29T06:28:36.926Z,14.43
2022-09-29T06:31:06.657Z,14.13
2022-09-29T06:33:34.903Z,14.00
2022-09-29T06:36:23.755Z,11.85
2022-09-29T06:38:50.459Z,13.73
2022-09-29T06:41:16.856Z,13.73
2022-09-29T06:43:43.479Z,13.00
2022-09-29T06:46:09.990Z,14.30
2022-09-29T06:48:37.654Z,12.77
2022-09-29T06:51:10.424Z,14.45
2022-09-29T06:53:39.002Z,12.95
2022-09-29T06:56:06.784Z,13.65
2022-09-29T06:58:33.936Z,13.98
2022-09-29T07:01:01.838Z,12.85
2022-09-29T07:03:29.932Z,12.93
2022-09-29T07:06:18.257Z,11.82
2022-09-29T07:08:42.837Z,12.20
2022-09-29T07:11:10.453Z,11.40
2022-09-29T07:13:37.648Z,12.93
2022-09-29T07:16:09.771Z,11.32
2022-09-29T07:18:38.075Z,11.30
2022-09-29T07:21:05.818Z,11.48
2022-09-29T07:23:33.401Z,10.73
2022-09-29T07:25:59.909Z,10.52
2022-09-29T07:28:27.352Z,11.02
2022-09-29T07:31:13.523Z,11.40
2022-09-29T07:33:40.517Z,9.98
2022-09-29T07:36:07.599Z,11.68
2022-09-29T07:38:34.035Z,10.70
2022-09-29T07:41:02.292Z,9.95
2022-09-29T07:43:30.512Z,10.70
2022-09-29T07:45:57.075Z,13.25
2022-09-29T07:48:25.914Z,12.75
2022-09-29T07:51:03.651Z,11.10
2022-09-29T07:53:31.112Z,12.13
2022-09-29T07:56:10.203Z,11.43
2022-09-29T07:58:37.707Z,12.13
2022-09-29T08:01:10.214Z,12.10
2022-09-29T08:03:38.865Z,12.98
2022-09-29T08:06:06.591Z,12.48
2022-09-29T08:08:35.796Z,12.25
2022-09-29T08:11:07.182Z,12.75
2022-09-29T08:13:34.525Z,11.75
2022-09-29T08:16:03.082Z,12.00
2022-09-29T08:18:31.423Z,11.60
2022-09-29T08:21:01.303Z,11.18
2022-09-29T08:23:31.813Z,10.55
2022-09-29T08:26:02.516Z,9.98
2022-09-29T08:28:32.788Z,10.73
2022-09-29T08:31:11.486Z,11.32
2022-09-29T08:33:38.804Z,10.27
2022-09-29T08:36:14.243Z,8.88
2022-09-29T08:38:45.625Z,8.95
2022-09-29T08:41:53.352Z,9.32
2022-09-29T08:44:42.874Z,9.05
2022-09-29T08:47:41.812Z,9.13
2022-09-29T08:50:33.407Z,8.88
2022-09-29T08:53:25.237Z,8.77
2022-09-29T08:56:02.226Z,7.85
2022-09-29T08:58:28.794Z,8.43
2022-09-29T09:01:16.372Z,9.02
2022-09-29T09:04:12.149Z,8.95
2022-09-29T09:06:55.033Z,8.23
2022-09-29T09:09:41.690Z,8.48
2022-09-29T09:12:31.646Z,9.30
2022-09-29T09:15:21.760Z,8.23
2022-09-29T09:18:16.246Z,8.80
2022-09-29T09:21:08.293Z,8.02
2022-09-29T09:24:05.069Z,6.88
2022-09-29T09:26:46.521Z,7.95
2022-09-29T09:29:37.580Z,8.43
2022-09-29T09:32:09.360Z,8.52
2022-09-29T09:34:45.834Z,9.23
2022-09-29T09:37:20.237Z,8.32
2022-09-29T09:39:55.109Z,8.60
2022-09-29T09:42:27.056Z,9.75
2022-09-29T09:45:06.928Z,8.88
2022-09-29T09:47:49.325Z,8.00
2022-09-29T09:50:22.170Z,8.07
2022-09-29T09:52:53.058Z,8.27
2022-09-29T09:55:24.687Z,8.20
2022-09-29T09:58:27.937Z,8.88
2022-09-29T10:01:01.490Z,9.35
2022-09-29T10:03:29.360Z,12.80
2022-09-29T10:05:56.918Z,9.18
2022-09-29T10:08:38.203Z,8.35
2022-09-29T10:11:15.954Z,8.00
2022-09-29T10:13:43.005Z,8.57
2022-09-29T10:16:17.025Z,7.68
2022-09-29T10:18:46.702Z,6.85
2022-09-29T10:21:31.237Z,6.45
2022-09-29T10:24:00.695Z,7.38
2022-09-29T10:26:32.278Z,7.88
2022-09-29T10:29:01.688Z,8.18
2022-09-29T10:31:32.387Z,7.35
2022-09-29T10:34:16.550Z,7.38
2022-09-29T10:36:56.102Z,7.68
2022-09-29T10:39:34.347Z,8.50
2022-09-29T10:42:00.849Z,8.63
2022-09-29T10:44:32.710Z,7.38
2022-09-29T10:47:00.035Z,6.53
2022-09-29T10:49:29.239Z,7.05
2022-09-29T10:52:00.670Z,7.45
2022-09-29T10:54:30.240Z,8.88
2022-09-29T10:56:58.383Z,6.82
2022-09-29T10:59:26.920Z,7.68
2022-09-29T11:02:02.188Z,7.10
2022-09-29T11:04:36.855Z,7.25
2022-09-29T11:07:12.565Z,7.07
2022-09-29T11:09:44.187Z,6.65
2022-09-29T11:12:33.911Z,6.75
2022-09-29T11:15:01.974Z,5.93
2022-09-29T11:17:31.278Z,6.75
2022-09-29T11:20:03.083Z,6.50
2022-09-29T11:22:36.934Z,6.07
2022-09-29T11:25:27.101Z,5.95
2022-09-29T11:28:18.026Z,6.97
2022-09-29T11:31:17.885Z,6.82
2022-09-29T11:34:31.323Z,6.32
2022-09-29T11:37:27.314Z,7.53
2022-09-29T11:42:45.056Z,6.45
2022-09-29T11:48:16.418Z,5.75
2022-09-29T11:51:07.182Z,6.57
2022-09-29T11:54:05.193Z,6.40
2022-09-29T11:57:04.004Z,5.95
2022-09-29T11:59:44.127Z,5.75
2022-09-29T12:02:41.290Z,6.53
2022-09-29T12:05:26.492Z,6.72
2022-09-29T12:08:11.609Z,8.68
2022-09-29T12:11:37.431Z,6.53
2022-09-29T12:14:19.455Z,6.38
2022-09-29T12:16:57.159Z,6.22
2022-09-29T12:19:28.883Z,7.03
2022-09-29T12:21:58.203Z,6.45
2022-09-29T12:24:46.551Z,5.32
2022-09-29T12:27:19.155Z,4.93
2022-09-29T12:29:55.523Z,4.70
2022-09-29T12:32:29.426Z,4.70
2022-09-29T12:35:02.300Z,4.35
2022-09-29T12:37:44.508Z,4.88
2022-09-29T12:40:22.312Z,4.60
2022-09-29T12:43:15.715Z,3.63
2022-09-29T12:45:57.814Z,3.30
2022-09-29T12:48:37.147Z,3.08
2022-09-29T12:51:12.581Z,2.78
2022-09-29T12:54:00.463Z,2.95
2022-09-29T12:56:33.708Z,2.60
2022-09-29T12:59:08.472Z,3.17
2022-09-29T13:01:37.766Z,3.65
2022-09-29T13:04:32.329Z,4.30
2022-09-29T13:07:26.161Z,3.72
2022-09-29T13:10:17.532Z,3.60
2022-09-29T13:13:25.313Z,4.03
2022-09-29T13:16:02.213Z,5.88
2022-09-29T13:19:00.074Z,5.28
2022-09-29T13:21:43.847Z,5.20
2022-09-29T13:24:28.576Z,4.57
2022-09-29T13:27:19.642Z,5.57
2022-09-29T13:29:51.261Z,4.60
2022-09-29T13:32:18.631Z,5.75
2022-09-29T13:34:57.956Z,5.28
2022-09-29T13:37:27.293Z,5.60
2022-09-29T13:40:11.649Z,6.65
2022-09-29T13:42:41.328Z,6.20
2022-09-29T13:45:40.977Z,6.90
2022-09-29T13:48:16.648Z,7.20
2022-09-29T13:50:53.157Z,7.32
2022-09-29T13:53:30.961Z,7.60
2022-09-29T13:56:03.504Z,7.38
2022-09-29T13:58:32.718Z,6.55
2022-09-29T14:01:05.703Z,8.23
2022-09-29T14:03:36.590Z,8.95
2022-09-29T14:06:39.194Z,8.35
2022-09-29T14:09:00.628Z,9.27
2022-09-29T14:11:37.335Z,8.68
2022-09-29T14:14:27.183Z,9.68
2022-09-29T14:16:56.379Z,8.65
2022-09-29T14:19:35.628Z,9.10
2022-09-29T14:22:05.544Z,9.52
2022-09-29T14:24:37.699Z,9.75
2022-09-29T14:27:25.979Z,10.35
2022-09-29T14:30:15.561Z,10.20
2022-09-29T14:32:52.016Z,9.90
2022-09-29T14:35:27.443Z,10.68
2022-09-29T14:38:07.200Z,10.77
2022-09-29T14:40:33.718Z,9.90
2022-09-29T14:43:12.594Z,9.75
2022-09-29T14:46:27.209Z,10.70
2022-09-29T14:49:48.994Z,11.10
2022-09-29T14:52:42.046Z,11.45
2022-09-29T14:55:30.980Z,11.35
2022-09-29T14:58:27.046Z,11.18
2022-09-29T15:03:51.565Z,10.30
2022-09-29T15:06:21.987Z,10.30
2022-09-29T15:09:00.244Z,11.15
2022-09-29T15:11:43.239Z,10.55
2022-09-29T15:14:27.661Z,9.90
2022-09-29T15:17:14.530Z,9.65
2022-09-29T15:20:18.223Z,9.02
2022-09-29T15:23:07.694Z,9.75
2022-09-29T15:25:40.681Z,9.88
2022-09-29T15:28:28.142Z,9.48
2022-09-29T15:31:00.224Z,9.68
2022-09-29T15:33:31.188Z,9.70
2022-09-29T15:36:02.590Z,9.07
2022-09-29T15:38:38.606Z,9.63
2022-09-29T15:41:18.032Z,10.27
2022-09-29T15:43:57.229Z,10.35
2022-09-29T15:46:34.221Z,10.30
2022-09-29T15:49:03.868Z,9.75
2022-09-29T15:51:31.344Z,10.85
2022-09-29T15:54:00.812Z,9.88
2022-09-29T15:56:30.947Z,22.23
2022-09-29T15:58:58.180Z,16.60
2022-09-29T16:01:24.769Z,26.88
2022-09-29T16:04:02.632Z,13.02
2022-09-29T16:06:32.036Z,14.65
2022-09-29T16:09:04.179Z,31.67
2022-09-29T16:11:34.387Z,17.13
2022-09-29T16:14:17.650Z,16.83
2022-09-29T16:16:47.646Z,11.63
2022-09-29T16:19:21.030Z,12.30
2022-09-29T16:21:53.029Z,10.68
2022-09-29T16:24:20.804Z,9.18
2022-09-29T16:26:48.647Z,8.88
2022-09-29T16:29:17.851Z,8.88
2022-09-29T16:31:49.591Z,8.27
2022-09-29T16:34:22.720Z,10.07
2022-09-29T16:36:55.299Z,9.55
2022-09-29T16:39:25.177Z,9.02
2022-09-29T16:41:58.546Z,9.60
2022-09-29T16:44:31.955Z,8.45
2022-09-29T16:47:15.080Z,9.82
2022-09-29T16:49:53.289Z,9.65
2022-09-29T16:52:26.809Z,9.20
2022-09-29T16:55:05.848Z,8.45
2022-09-29T16:57:34.413Z,9.13
2022-09-29T17:00:06.707Z,9.20
2022-09-29T17:02:33.176Z,9.00
2022-09-29T17:05:01.219Z,9.85
2022-09-29T17:07:28.754Z,9.85
2022-09-29T17:09:58.054Z,9.65
2022-09-29T17:12:28.068Z,10.23
2022-09-29T17:14:54.907Z,10.85
2022-09-29T17:17:24.082Z,10.80
2022-09-29T17:19:52.410Z,11.40
2022-09-29T17:22:39.157Z,11.10
2022-09-29T17:25:06.357Z,11.77
2022-09-29T17:27:52.269Z,13.40
2022-09-29T17:30:22.730Z,11.93
2022-09-29T17:32:52.563Z,11.77
2022-09-29T17:35:21.201Z,12.10
2022-09-29T17:37:47.840Z,12.98
2022-09-29T17:40:25.351Z,13.73
2022-09-29T17:42:51.978Z,14.60
2022-09-29T17:45:20.537Z,13.27
2022-09-29T17:47:49.166Z,14.05
2022-09-29T17:50:33.828Z,12.50
2022-09-29T17:53:00.359Z,12.55
2022-09-29T17:55:27.473Z,14.07
2022-09-29T17:57:54.300Z,12.77
2022-09-29T18:00:24.641Z,14.23
2022-09-29T18:02:51.872Z,15.15
2022-09-29T18:05:25.039Z,15.02
2022-09-29T18:07:53.121Z,13.93
2022-09-29T18:10:41.075Z,15.18
2022-09-29T18:13:08.143Z,14.20
2022-09-29T18:15:35.570Z,13.80
2022-09-29T18:18:03.467Z,14.75
2022-09-29T18:20:32.795Z,14.52
2022-09-29T18:23:00.456Z,14.95
2022-09-29T18:25:31.992Z,14.02
2022-09-29T18:27:59.534Z,12.45
2022-09-29T18:30:29.474Z,13.20
2022-09-29T18:33:00.544Z,13.43
2022-09-29T18:35:30.990Z,13.85
2022-09-29T18:37:58.511Z,12.90
2022-09-29T18:40:26.399Z,13.23
2022-09-29T18:42:55.799Z,14.15
2022-09-29T18:45:24.725Z,14.32
2022-09-29T18:47:55.290Z,13.80
2022-09-29T18:50:27.482Z,12.80
2022-09-29T18:52:54.447Z,12.85
2022-09-29T18:55:23.950Z,12.80
2022-09-29T18:57:50.961Z,11.35
2022-09-29T19:00:20.884Z,12.00
2022-09-29T19:02:48.114Z,12.05
2022-09-29T19:05:23.734Z,11.95
2022-09-29T19:07:55.464Z,11.05
2022-09-29T19:10:25.457Z,10.73
2022-09-29T19:12:52.821Z,10.93
2022-09-29T19:15:21.594Z,10.52
2022-09-29T19:17:49.653Z,10.70
2022-09-29T19:20:17.715Z,10.80
2022-09-29T19:22:45.856Z,10.65
2022-09-29T19:25:15.793Z,10.73
2022-09-29T19:27:43.907Z,10.70
2022-09-29T19:30:12.933Z,9.00
2022-09-29T19:32:40.297Z,9.55
2022-09-29T19:35:13.121Z,9.55
2022-09-29T19:37:40.342Z,9.00
2022-09-29T19:40:10.009Z,8.57
2022-09-29T19:42:36.734Z,8.30
2022-09-29T19:45:04.821Z,8.32
2022-09-29T19:47:31.268Z,8.55
2022-09-29T19:50:17.790Z,7.45
2022-09-29T19:52:44.385Z,7.65
2022-09-29T19:55:12.857Z,7.18
2022-09-29T19:57:42.793Z,7.32
2022-09-29T20:00:12.182Z,7.15
2022-09-29T20:02:43.323Z,6.25
2022-09-29T20:05:10.792Z,6.28
2022-09-29T20:07:40.026Z,6.15
2022-09-29T20:10:08.321Z,5.63
2022-09-29T20:12:35.130Z,7.18
2022-09-29T20:15:01.968Z,6.00
2022-09-29T20:17:28.547Z,8.43
2022-09-29T20:19:54.943Z,6.40
2022-09-29T20:22:22.316Z,5.32
2022-09-29T20:24:48.824Z,5.00
2022-09-29T20:27:15.243Z,5.05
2022-09-29T20:29:41.693Z,4.90
2022-09-29T20:32:08.526Z,4.78
2022-09-29T20:34:35.011Z,4.50
2022-09-29T20:37:01.470Z,4.75
2022-09-29T20:39:27.988Z,4.82
2022-09-29T20:41:55.358Z,4.13
2022-09-29T20:44:26.268Z,4.50
2022-09-29T20:46:54.133Z,3.70
2022-09-29T20:49:20.677Z,4.43
2022-09-29T20:51:47.455Z,3.50
2022-09-29T20:54:14.547Z,3.85
2022-09-29T20:56:41.633Z,3.20
2022-09-29T20:59:16.879Z,3.50
2022-09-29T21:04:13.387Z,3.40
2022-09-29T21:06:42.909Z,3.17
2022-09-29T21:09:13.355Z,2.50
2022-09-29T21:11:40.969Z,3.28
2022-09-29T21:14:10.744Z,3.05
2022-09-29T21:16:41.669Z,2.67
2022-09-29T21:19:11.978Z,3.10
2022-09-29T21:21:40.863Z,3.30
2022-09-29T21:24:08.867Z,2.70
2022-09-29T21:26:35.606Z,2.67
2022-09-29T21:29:02.819Z,3.00
2022-09-29T21:31:32.257Z,2.50
2022-09-29T21:34:04.215Z,2.15
2022-09-29T21:36:32.364Z,2.40
2022-09-29T21:38:59.829Z,2.85
2022-09-29T21:41:34.213Z,2.10
2022-09-29T21:44:09.177Z,1.87
2022-09-29T21:46:35.853Z,2.28
2022-09-29T21:49:04.477Z,2.03
2022-09-29T21:51:34.755Z,1.80
2022-09-29T21:54:02.391Z,2.10
2022-09-29T21:56:31.813Z,2.15
2022-09-29T21:58:58.498Z,2.25
2022-09-29T22:01:26.318Z,2.60
2022-09-29T22:03:55.447Z,2.45
2022-09-29T22:06:24.917Z,2.25
2022-09-29T22:08:51.647Z,2.45
2022-09-29T22:11:23.941Z,2.67
2022-09-29T22:13:52.419Z,2.38
2022-09-29T22:16:25.743Z,2.63
2022-09-29T22:19:18.268Z,2.70
2022-09-29T22:21:40.149Z,2.72
2022-09-29T22:24:06.890Z,2.72
2022-09-29T22:26:33.504Z,2.78
2022-09-29T22:29:02.714Z,2.40
2022-09-29T22:31:31.019Z,2.70
2022-09-29T22:34:01.308Z,3.03
2022-09-29T22:36:30.963Z,3.00
2022-09-29T22:38:58.052Z,3.03
2022-09-29T22:41:24.573Z,3.05
2022-09-29T22:43:53.347Z,2.65
2022-09-29T22:46:21.676Z,3.08
2022-09-29T22:48:48.379Z,2.58
2022-09-29T22:51:14.889Z,2.47
2022-09-29T22:53:41.851Z,2.75
2022-09-29T22:56:15.488Z,2.63
2022-09-29T22:58:42.388Z,2.63
2022-09-29T23:01:13.460Z,3.08
2022-09-29T23:03:41.582Z,2.95
2022-09-29T23:06:08.790Z,2.67
2022-09-29T23:08:36.719Z,2.97
2022-09-29T23:11:07.324Z,2.97
2022-09-29T23:13:40.608Z,3.13
2022-09-29T23:16:12.492Z,3.90
2022-09-29T23:18:44.555Z,3.38
2022-09-29T23:21:20.754Z,3.85
2022-09-29T23:23:57.649Z,4.13
2022-09-29T23:26:24.461Z,3.75
2022-09-29T23:28:51.322Z,3.05
2022-09-29T23:31:18.387Z,3.78
2022-09-29T23:33:44.915Z,3.80
2022-09-29T23:36:13.839Z,3.50
2022-09-29T23:39:00.750Z,3.70
2022-09-29T23:41:29.700Z,4.18
2022-09-29T23:43:58.405Z,3.78
2022-09-29T23:46:26.190Z,3.58
2022-09-29T23:48:52.761Z,3.88
2022-09-29T23:51:19.240Z,4.00
2022-09-29T23:53:45.792Z,3.55
2022-09-29T23:56:12.204Z,4.90
2022-09-29T23:58:38.679Z,5.38
